This is the latest recevied weather packets stored in our database for station/object SQ9PDE-13. If no packets are shown the sender has not sent any weather packets the latest 10 day(s).
| Time | Temp. | Humidity | Pressure | Rain* | Wind** | Luminosity | Snow |
|---|---|---|---|---|---|---|---|
| 1787953442 | 19.44° C | 51% | 1014.2 hPa | - | - | - | - |
| 1787950136 | 20.56° C | 48% | 1014.5 hPa | - | - | - | - |
| 1787949835 | 20.56° C | 48% | 1014.5 hPa | - | - | - | - |
| 1787949535 | 20.56° C | 48% | 1014.6 hPa | - | - | - | - |
| 1787949234 | 20.56° C | 48% | 1014.7 hPa | - | - | - | - |
| 1787948934 | 20.56° C | 47% | 1014.7 hPa | - | - | - | - |
| 1787948633 | 20.56° C | 47% | 1014.7 hPa | - | - | - | - |
| 1787948333 | 21.11° C | 46% | 1014.7 hPa | - | - | - | - |
| 1787948032 | 21.11° C | 46% | 1014.8 hPa | - | - | - | - |
| 1787947732 | 21.11° C | 46% | 1014.8 hPa | - | - | - | - |
| 1787940621 | 22.78° C | 43% | 1014.1 hPa | - | - | - | - |
| 1787940320 | 22.78° C | 43% | 1014.1 hPa | - | - | - | - |
| 1787940020 | 22.78° C | 43% | 1014.2 hPa | - | - | - | - |
| 1787939719 | 22.78° C | 43% | 1014.2 hPa | - | - | - | - |
| 1787939474 | 22.78° C | 44% | 1014.2 hPa | - | - | - | - |
| 1787939419 | 22.78° C | 44% | 1014.2 hPa | - | - | - | - |
| 1787939118 | 23.33° C | 43% | 1014.2 hPa | - | - | - | - |
| 1787938818 | 23.33° C | 43% | 1014.3 hPa | - | - | - | - |
| 1787938517 | 23.33° C | 43% | 1014.2 hPa | - | - | - | - |
| 1787938217 | 23.33° C | 43% | 1014.2 hPa | - | - | - | - |
| 1787937916 | 23.33° C | 43% | 1014.1 hPa | - | - | - | - |
| 1787937693 | 23.33° C | 43% | 1014.2 hPa | - | - | - | - |
| 1787937616 | 23.33° C | 43% | 1014.2 hPa | - | - | - | - |
| 1787937315 | 23.89° C | 43% | 1014.2 hPa | - | - | - | - |
| 1787937015 | 23.89° C | 43% | 1014.3 hPa | - | - | - | - |
* Rain since midnight (hover to see other rain measurements)
** Current wind speed in m/s (hover to see current wind gust speed)